sensor_id;sensor_type;location;lat;lon;timestamp;temperature;humidity
80132;SHT30;69442;51.442;10.564;2023-05-14T00:00:58;15.10;52.90
80132;SHT30;69442;51.442;10.564;2023-05-14T00:03:24;15.05;52.70
80132;SHT30;69442;51.442;10.564;2023-05-14T00:05:49;15.04;52.83
80132;SHT30;69442;51.442;10.564;2023-05-14T00:08:14;14.98;53.04
80132;SHT30;69442;51.442;10.564;2023-05-14T00:10:40;14.94;53.08
80132;SHT30;69442;51.442;10.564;2023-05-14T00:13:05;14.88;52.95
80132;SHT30;69442;51.442;10.564;2023-05-14T00:15:31;14.84;53.19
80132;SHT30;69442;51.442;10.564;2023-05-14T00:17:56;14.80;52.85
80132;SHT30;69442;51.442;10.564;2023-05-14T00:20:22;14.79;52.82
80132;SHT30;69442;51.442;10.564;2023-05-14T00:22:47;14.72;52.85
80132;SHT30;69442;51.442;10.564;2023-05-14T00:25:12;14.67;52.70
80132;SHT30;69442;51.442;10.564;2023-05-14T00:27:38;14.65;53.18
80132;SHT30;69442;51.442;10.564;2023-05-14T00:30:04;14.60;53.30
80132;SHT30;69442;51.442;10.564;2023-05-14T00:32:31;14.55;53.59
80132;SHT30;69442;51.442;10.564;2023-05-14T00:34:56;14.50;53.47
80132;SHT30;69442;51.442;10.564;2023-05-14T00:37:22;14.48;53.44
80132;SHT30;69442;51.442;10.564;2023-05-14T00:39:47;14.41;53.20
80132;SHT30;69442;51.442;10.564;2023-05-14T00:42:12;14.38;53.43
80132;SHT30;69442;51.442;10.564;2023-05-14T00:44:38;14.32;53.42
80132;SHT30;69442;51.442;10.564;2023-05-14T00:47:03;14.29;53.52
80132;SHT30;69442;51.442;10.564;2023-05-14T00:49:29;14.25;53.54
80132;SHT30;69442;51.442;10.564;2023-05-14T00:51:54;14.21;53.68
80132;SHT30;69442;51.442;10.564;2023-05-14T00:54:23;14.20;53.57
80132;SHT30;69442;51.442;10.564;2023-05-14T00:56:49;14.18;53.59
80132;SHT30;69442;51.442;10.564;2023-05-14T00:59:15;14.15;53.90
80132;SHT30;69442;51.442;10.564;2023-05-14T01:01:40;14.08;53.91
80132;SHT30;69442;51.442;10.564;2023-05-14T01:04:06;14.10;54.05
80132;SHT30;69442;51.442;10.564;2023-05-14T01:12:35;14.00;54.13
80132;SHT30;69442;51.442;10.564;2023-05-14T01:15:14;13.97;54.61
80132;SHT30;69442;51.442;10.564;2023-05-14T01:17:49;13.96;54.55
80132;SHT30;69442;51.442;10.564;2023-05-14T01:20:15;13.96;54.67
80132;SHT30;69442;51.442;10.564;2023-05-14T01:22:41;13.90;54.75
80132;SHT30;69442;51.442;10.564;2023-05-14T01:25:07;13.86;54.57
80132;SHT30;69442;51.442;10.564;2023-05-14T01:27:41;13.84;54.92
80132;SHT30;69442;51.442;10.564;2023-05-14T01:30:33;13.83;55.04
80132;SHT30;69442;51.442;10.564;2023-05-14T01:33:01;13.77;54.78
80132;SHT30;69442;51.442;10.564;2023-05-14T01:35:29;13.77;54.58
80132;SHT30;69442;51.442;10.564;2023-05-14T01:37:59;13.74;54.91
80132;SHT30;69442;51.442;10.564;2023-05-14T01:40:25;13.73;54.87
80132;SHT30;69442;51.442;10.564;2023-05-14T01:42:52;13.70;54.94
80132;SHT30;69442;51.442;10.564;2023-05-14T01:45:19;13.65;55.01
80132;SHT30;69442;51.442;10.564;2023-05-14T01:47:45;13.62;54.78
80132;SHT30;69442;51.442;10.564;2023-05-14T01:50:10;13.61;54.84
80132;SHT30;69442;51.442;10.564;2023-05-14T01:52:36;13.61;54.71
80132;SHT30;69442;51.442;10.564;2023-05-14T01:55:01;13.59;54.76
80132;SHT30;69442;51.442;10.564;2023-05-14T01:57:28;13.53;54.90
80132;SHT30;69442;51.442;10.564;2023-05-14T01:59:53;13.55;54.82
80132;SHT30;69442;51.442;10.564;2023-05-14T02:02:18;13.51;54.71
80132;SHT30;69442;51.442;10.564;2023-05-14T02:04:44;13.46;54.87
80132;SHT30;69442;51.442;10.564;2023-05-14T02:07:09;13.44;54.91
80132;SHT30;69442;51.442;10.564;2023-05-14T02:09:35;13.41;54.94
80132;SHT30;69442;51.442;10.564;2023-05-14T02:12:03;13.39;55.02
80132;SHT30;69442;51.442;10.564;2023-05-14T02:14:29;13.39;54.94
80132;SHT30;69442;51.442;10.564;2023-05-14T02:16:55;13.39;55.00
80132;SHT30;69442;51.442;10.564;2023-05-14T02:19:20;13.39;55.08
80132;SHT30;69442;51.442;10.564;2023-05-14T02:21:47;13.34;55.08
80132;SHT30;69442;51.442;10.564;2023-05-14T02:24:12;13.34;55.30
80132;SHT30;69442;51.442;10.564;2023-05-14T02:26:37;13.32;55.20
80132;SHT30;69442;51.442;10.564;2023-05-14T02:29:03;13.28;55.17
80132;SHT30;69442;51.442;10.564;2023-05-14T02:31:28;13.25;55.07
80132;SHT30;69442;51.442;10.564;2023-05-14T02:33:54;13.27;55.23
80132;SHT30;69442;51.442;10.564;2023-05-14T02:36:19;13.27;55.28
80132;SHT30;69442;51.442;10.564;2023-05-14T02:38:44;13.25;55.28
80132;SHT30;69442;51.442;10.564;2023-05-14T02:41:10;13.24;55.43
80132;SHT30;69442;51.442;10.564;2023-05-14T02:43:35;13.25;55.58
80132;SHT30;69442;51.442;10.564;2023-05-14T02:46:00;13.22;55.37
80132;SHT30;69442;51.442;10.564;2023-05-14T02:48:26;13.19;55.52
80132;SHT30;69442;51.442;10.564;2023-05-14T02:50:51;13.19;55.49
80132;SHT30;69442;51.442;10.564;2023-05-14T02:53:17;13.18;55.89
80132;SHT30;69442;51.442;10.564;2023-05-14T02:55:42;13.18;55.69
80132;SHT30;69442;51.442;10.564;2023-05-14T02:58:08;13.14;55.78
80132;SHT30;69442;51.442;10.564;2023-05-14T03:00:33;13.18;56.05
80132;SHT30;69442;51.442;10.564;2023-05-14T03:02:58;13.17;56.43
80132;SHT30;69442;51.442;10.564;2023-05-14T03:05:24;13.12;56.26
80132;SHT30;69442;51.442;10.564;2023-05-14T03:07:50;13.10;56.17
80132;SHT30;69442;51.442;10.564;2023-05-14T03:10:16;13.12;56.09
80132;SHT30;69442;51.442;10.564;2023-05-14T03:12:41;13.11;56.13
80132;SHT30;69442;51.442;10.564;2023-05-14T03:15:07;13.11;56.13
80132;SHT30;69442;51.442;10.564;2023-05-14T03:17:33;13.10;56.06
80132;SHT30;69442;51.442;10.564;2023-05-14T03:19:58;13.06;56.16
80132;SHT30;69442;51.442;10.564;2023-05-14T03:22:24;13.07;56.21
80132;SHT30;69442;51.442;10.564;2023-05-14T03:24:49;13.10;56.36
80132;SHT30;69442;51.442;10.564;2023-05-14T03:27:14;13.06;56.29
80132;SHT30;69442;51.442;10.564;2023-05-14T03:29:40;13.04;56.35
80132;SHT30;69442;51.442;10.564;2023-05-14T03:32:05;13.06;56.38
80132;SHT30;69442;51.442;10.564;2023-05-14T03:34:31;13.07;56.72
80132;SHT30;69442;51.442;10.564;2023-05-14T03:36:56;13.04;56.81
80132;SHT30;69442;51.442;10.564;2023-05-14T03:39:22;13.01;56.69
80132;SHT30;69442;51.442;10.564;2023-05-14T03:41:47;13.00;56.66
80132;SHT30;69442;51.442;10.564;2023-05-14T03:44:13;13.04;56.77
80132;SHT30;69442;51.442;10.564;2023-05-14T03:46:39;13.00;56.76
80132;SHT30;69442;51.442;10.564;2023-05-14T03:49:05;12.99;56.74
80132;SHT30;69442;51.442;10.564;2023-05-14T03:51:30;13.00;56.92
80132;SHT30;69442;51.442;10.564;2023-05-14T03:53:56;13.00;57.06
80132;SHT30;69442;51.442;10.564;2023-05-14T03:56:23;12.99;57.08
80132;SHT30;69442;51.442;10.564;2023-05-14T03:58:48;12.99;57.22
80132;SHT30;69442;51.442;10.564;2023-05-14T04:01:14;12.99;57.01
80132;SHT30;69442;51.442;10.564;2023-05-14T04:03:39;12.94;56.83
80132;SHT30;69442;51.442;10.564;2023-05-14T04:06:05;12.96;56.94
80132;SHT30;69442;51.442;10.564;2023-05-14T04:08:30;12.96;56.85
80132;SHT30;69442;51.442;10.564;2023-05-14T04:10:55;12.97;56.96
80132;SHT30;69442;51.442;10.564;2023-05-14T04:13:21;12.94;56.95
80132;SHT30;69442;51.442;10.564;2023-05-14T04:15:46;12.93;56.86
80132;SHT30;69442;51.442;10.564;2023-05-14T04:18:11;12.94;56.83
80132;SHT30;69442;51.442;10.564;2023-05-14T04:20:37;12.96;56.99
80132;SHT30;69442;51.442;10.564;2023-05-14T04:23:02;12.94;56.92
80132;SHT30;69442;51.442;10.564;2023-05-14T04:25:28;12.94;57.02
80132;SHT30;69442;51.442;10.564;2023-05-14T04:27:54;12.94;57.02
80132;SHT30;69442;51.442;10.564;2023-05-14T04:30:19;12.96;56.98
80132;SHT30;69442;51.442;10.564;2023-05-14T04:32:45;12.91;57.02
80132;SHT30;69442;51.442;10.564;2023-05-14T04:35:10;12.93;57.04
80132;SHT30;69442;51.442;10.564;2023-05-14T04:37:37;12.94;57.19
80132;SHT30;69442;51.442;10.564;2023-05-14T04:40:04;12.97;57.17
80132;SHT30;69442;51.442;10.564;2023-05-14T04:42:30;12.93;57.20
80132;SHT30;69442;51.442;10.564;2023-05-14T04:44:55;12.94;57.11
80132;SHT30;69442;51.442;10.564;2023-05-14T04:47:20;12.96;57.09
80132;SHT30;69442;51.442;10.564;2023-05-14T04:49:46;12.97;57.04
80132;SHT30;69442;51.442;10.564;2023-05-14T04:52:13;12.97;57.02
80132;SHT30;69442;51.442;10.564;2023-05-14T04:54:38;12.94;57.18
80132;SHT30;69442;51.442;10.564;2023-05-14T04:57:04;12.97;57.30
80132;SHT30;69442;51.442;10.564;2023-05-14T04:59:29;12.97;57.25
80132;SHT30;69442;51.442;10.564;2023-05-14T05:01:55;12.97;57.31
80132;SHT30;69442;51.442;10.564;2023-05-14T05:04:20;12.99;57.41
80132;SHT30;69442;51.442;10.564;2023-05-14T05:06:48;12.99;57.69
80132;SHT30;69442;51.442;10.564;2023-05-14T05:09:13;13.00;57.80
80132;SHT30;69442;51.442;10.564;2023-05-14T05:11:39;13.01;57.84
80132;SHT30;69442;51.442;10.564;2023-05-14T05:14:04;13.03;57.94
80132;SHT30;69442;51.442;10.564;2023-05-14T05:16:30;13.07;58.04
80132;SHT30;69442;51.442;10.564;2023-05-14T05:18:55;13.07;58.15
80132;SHT30;69442;51.442;10.564;2023-05-14T05:21:20;13.10;58.10
80132;SHT30;69442;51.442;10.564;2023-05-14T05:23:46;13.11;58.25
80132;SHT30;69442;51.442;10.564;2023-05-14T05:26:11;13.14;58.29
80132;SHT30;69442;51.442;10.564;2023-05-14T05:28:37;13.14;58.47
80132;SHT30;69442;51.442;10.564;2023-05-14T05:31:02;13.19;58.69
80132;SHT30;69442;51.442;10.564;2023-05-14T05:33:28;13.18;58.70
80132;SHT30;69442;51.442;10.564;2023-05-14T05:35:53;13.24;58.83
80132;SHT30;69442;51.442;10.564;2023-05-14T05:38:18;13.28;58.82
80132;SHT30;69442;51.442;10.564;2023-05-14T05:40:44;13.32;58.91
80132;SHT30;69442;51.442;10.564;2023-05-14T05:43:09;13.35;58.94
80132;SHT30;69442;51.442;10.564;2023-05-14T05:45:36;13.38;59.19
80132;SHT30;69442;51.442;10.564;2023-05-14T05:48:01;13.41;59.08
80132;SHT30;69442;51.442;10.564;2023-05-14T05:50:27;13.44;59.36
80132;SHT30;69442;51.442;10.564;2023-05-14T05:52:52;13.46;59.27
80132;SHT30;69442;51.442;10.564;2023-05-14T05:55:17;13.48;59.28
80132;SHT30;69442;51.442;10.564;2023-05-14T05:57:43;13.55;59.23
80132;SHT30;69442;51.442;10.564;2023-05-14T06:00:09;13.61;59.28
80132;SHT30;69442;51.442;10.564;2023-05-14T06:02:37;13.63;59.15
80132;SHT30;69442;51.442;10.564;2023-05-14T06:05:04;13.65;59.10
80132;SHT30;69442;51.442;10.564;2023-05-14T06:07:29;13.70;59.09
80132;SHT30;69442;51.442;10.564;2023-05-14T06:09:55;13.73;58.87
80132;SHT30;69442;51.442;10.564;2023-05-14T06:12:20;13.76;58.67
80132;SHT30;69442;51.442;10.564;2023-05-14T06:14:46;13.81;58.59
80132;SHT30;69442;51.442;10.564;2023-05-14T06:17:11;13.86;58.42
80132;SHT30;69442;51.442;10.564;2023-05-14T06:19:36;13.89;58.26
80132;SHT30;69442;51.442;10.564;2023-05-14T06:22:02;13.93;58.16
80132;SHT30;69442;51.442;10.564;2023-05-14T06:24:27;13.96;58.08
80132;SHT30;69442;51.442;10.564;2023-05-14T06:26:52;14.00;58.02
80132;SHT30;69442;51.442;10.564;2023-05-14T06:29:18;14.06;57.95
80132;SHT30;69442;51.442;10.564;2023-05-14T06:31:43;14.10;58.10
80132;SHT30;69442;51.442;10.564;2023-05-14T06:34:09;14.11;58.08
80132;SHT30;69442;51.442;10.564;2023-05-14T06:36:34;14.14;58.04
80132;SHT30;69442;51.442;10.564;2023-05-14T06:39:00;14.22;57.96
80132;SHT30;69442;51.442;10.564;2023-05-14T06:41:25;14.25;57.80
80132;SHT30;69442;51.442;10.564;2023-05-14T06:43:51;14.26;57.75
80132;SHT30;69442;51.442;10.564;2023-05-14T06:46:16;14.32;57.88
80132;SHT30;69442;51.442;10.564;2023-05-14T06:48:41;14.36;57.73
80132;SHT30;69442;51.442;10.564;2023-05-14T06:51:07;14.41;57.58
80132;SHT30;69442;51.442;10.564;2023-05-14T06:53:32;14.45;57.47
80132;SHT30;69442;51.442;10.564;2023-05-14T06:55:57;14.50;57.43
80132;SHT30;69442;51.442;10.564;2023-05-14T06:58:23;14.56;57.35
80132;SHT30;69442;51.442;10.564;2023-05-14T07:00:48;14.60;57.27
80132;SHT30;69442;51.442;10.564;2023-05-14T07:03:13;14.65;57.24
80132;SHT30;69442;51.442;10.564;2023-05-14T07:05:39;14.70;57.29
80132;SHT30;69442;51.442;10.564;2023-05-14T07:08:05;14.76;57.26
80132;SHT30;69442;51.442;10.564;2023-05-14T07:10:31;14.81;57.12
80132;SHT30;69442;51.442;10.564;2023-05-14T07:12:57;14.86;57.15
80132;SHT30;69442;51.442;10.564;2023-05-14T07:15:22;14.93;57.00
80132;SHT30;69442;51.442;10.564;2023-05-14T07:17:47;14.97;57.04
80132;SHT30;69442;51.442;10.564;2023-05-14T07:20:13;15.03;56.88
80132;SHT30;69442;51.442;10.564;2023-05-14T07:22:38;15.12;56.77
80132;SHT30;69442;51.442;10.564;2023-05-14T07:25:04;15.17;56.39
80132;SHT30;69442;51.442;10.564;2023-05-14T07:27:30;15.24;56.32
80132;SHT30;69442;51.442;10.564;2023-05-14T07:29:55;15.32;56.14
80132;SHT30;69442;51.442;10.564;2023-05-14T07:32:21;15.36;56.06
80132;SHT30;69442;51.442;10.564;2023-05-14T07:34:46;15.43;56.01
80132;SHT30;69442;51.442;10.564;2023-05-14T07:37:11;15.53;55.95
80132;SHT30;69442;51.442;10.564;2023-05-14T07:39:37;15.57;55.94
80132;SHT30;69442;51.442;10.564;2023-05-14T07:42:03;15.67;55.87
80132;SHT30;69442;51.442;10.564;2023-05-14T07:44:28;15.76;55.75
80132;SHT30;69442;51.442;10.564;2023-05-14T07:46:53;15.83;55.65
80132;SHT30;69442;51.442;10.564;2023-05-14T07:49:19;15.93;55.56
80132;SHT30;69442;51.442;10.564;2023-05-14T07:51:44;16.00;55.47
80132;SHT30;69442;51.442;10.564;2023-05-14T07:54:10;16.08;55.33
80132;SHT30;69442;51.442;10.564;2023-05-14T07:56:35;16.15;55.22
80132;SHT30;69442;51.442;10.564;2023-05-14T07:59:00;16.24;55.13
80132;SHT30;69442;51.442;10.564;2023-05-14T08:01:26;16.33;55.00
80132;SHT30;69442;51.442;10.564;2023-05-14T08:03:51;16.43;54.92
80132;SHT30;69442;51.442;10.564;2023-05-14T08:06:17;16.53;54.86
80132;SHT30;69442;51.442;10.564;2023-05-14T08:08:45;16.62;54.74
80132;SHT30;69442;51.442;10.564;2023-05-14T08:11:10;16.70;54.61
80132;SHT30;69442;51.442;10.564;2023-05-14T08:13:36;16.85;54.45
80132;SHT30;69442;51.442;10.564;2023-05-14T08:16:01;16.97;54.35
80132;SHT30;69442;51.442;10.564;2023-05-14T08:18:27;17.08;54.25
80132;SHT30;69442;51.442;10.564;2023-05-14T08:20:52;17.19;54.17
80132;SHT30;69442;51.442;10.564;2023-05-14T08:23:17;17.33;54.00
80132;SHT30;69442;51.442;10.564;2023-05-14T08:25:43;17.47;53.85
80132;SHT30;69442;51.442;10.564;2023-05-14T08:28:08;17.60;53.75
80132;SHT30;69442;51.442;10.564;2023-05-14T08:30:33;17.74;53.58
80132;SHT30;69442;51.442;10.564;2023-05-14T08:32:59;17.87;53.55
80132;SHT30;69442;51.442;10.564;2023-05-14T08:35:24;18.01;53.43
80132;SHT30;69442;51.442;10.564;2023-05-14T08:37:50;18.15;53.39
80132;SHT30;69442;51.442;10.564;2023-05-14T08:40:17;18.29;53.14
80132;SHT30;69442;51.442;10.564;2023-05-14T08:42:43;18.42;52.99
80132;SHT30;69442;51.442;10.564;2023-05-14T08:47:35;18.71;52.76
80132;SHT30;69442;51.442;10.564;2023-05-14T08:52:32;18.97;52.58
80132;SHT30;69442;51.442;10.564;2023-05-14T08:55:04;19.09;52.43
80132;SHT30;69442;51.442;10.564;2023-05-14T08:57:33;19.26;52.18
80132;SHT30;69442;51.442;10.564;2023-05-14T08:59:59;19.39;52.12
80132;SHT30;69442;51.442;10.564;2023-05-14T09:02:29;19.50;51.94
80132;SHT30;69442;51.442;10.564;2023-05-14T09:04:59;19.63;51.84
80132;SHT30;69442;51.442;10.564;2023-05-14T09:07:26;19.74;51.65
80132;SHT30;69442;51.442;10.564;2023-05-14T09:09:52;19.88;51.56
80132;SHT30;69442;51.442;10.564;2023-05-14T09:12:18;19.98;51.45
80132;SHT30;69442;51.442;10.564;2023-05-14T09:14:44;20.11;51.29
80132;SHT30;69442;51.442;10.564;2023-05-14T09:17:10;20.24;51.26
80132;SHT30;69442;51.442;10.564;2023-05-14T09:19:39;20.36;51.07
80132;SHT30;69442;51.442;10.564;2023-05-14T09:22:10;20.44;50.92
80132;SHT30;69442;51.442;10.564;2023-05-14T09:24:36;20.66;50.89
80132;SHT30;69442;51.442;10.564;2023-05-14T09:27:03;20.76;50.62
80132;SHT30;69442;51.442;10.564;2023-05-14T09:29:29;20.87;50.49
80132;SHT30;69442;51.442;10.564;2023-05-14T09:31:56;21.02;50.27
80132;SHT30;69442;51.442;10.564;2023-05-14T09:36:48;21.30;50.07
80132;SHT30;69442;51.442;10.564;2023-05-14T09:39:13;21.39;49.90
80132;SHT30;69442;51.442;10.564;2023-05-14T09:41:40;21.50;49.76
80132;SHT30;69442;51.442;10.564;2023-05-14T09:44:05;21.66;49.75
80132;SHT30;69442;51.442;10.564;2023-05-14T09:46:31;21.78;49.64
80132;SHT30;69442;51.442;10.564;2023-05-14T09:48:56;21.91;49.51
80132;SHT30;69442;51.442;10.564;2023-05-14T09:51:22;22.05;49.32
80132;SHT30;69442;51.442;10.564;2023-05-14T09:53:50;22.19;49.07
80132;SHT30;69442;51.442;10.564;2023-05-14T09:56:16;22.36;49.15
80132;SHT30;69442;51.442;10.564;2023-05-14T09:58:42;22.50;48.90
80132;SHT30;69442;51.442;10.564;2023-05-14T10:01:08;22.68;48.63
80132;SHT30;69442;51.442;10.564;2023-05-14T10:03:34;22.86;48.46
80132;SHT30;69442;51.442;10.564;2023-05-14T10:06:03;23.01;48.18
80132;SHT30;69442;51.442;10.564;2023-05-14T10:08:33;23.16;48.03
80132;SHT30;69442;51.442;10.564;2023-05-14T10:11:02;23.34;47.89
80132;SHT30;69442;51.442;10.564;2023-05-14T10:13:35;23.49;47.84
80132;SHT30;69442;51.442;10.564;2023-05-14T10:16:11;23.66;47.22
80132;SHT30;69442;51.442;10.564;2023-05-14T10:18:42;23.77;47.31
80132;SHT30;69442;51.442;10.564;2023-05-14T10:21:13;23.93;47.14
80132;SHT30;69442;51.442;10.564;2023-05-14T10:23:39;24.05;47.00
80132;SHT30;69442;51.442;10.564;2023-05-14T10:26:06;24.12;46.94
80132;SHT30;69442;51.442;10.564;2023-05-14T10:28:32;24.26;46.78
80132;SHT30;69442;51.442;10.564;2023-05-14T10:30:59;24.35;46.65
80132;SHT30;69442;51.442;10.564;2023-05-14T10:33:25;24.43;46.56
80132;SHT30;69442;51.442;10.564;2023-05-14T10:36:06;24.50;46.12
80132;SHT30;69442;51.442;10.564;2023-05-14T10:38:36;24.56;46.48
80132;SHT30;69442;51.442;10.564;2023-05-14T10:41:06;24.67;46.18
80132;SHT30;69442;51.442;10.564;2023-05-14T10:43:36;24.77;46.13
80132;SHT30;69442;51.442;10.564;2023-05-14T10:46:03;24.88;46.00
80132;SHT30;69442;51.442;10.564;2023-05-14T10:48:29;24.98;45.92
80132;SHT30;69442;51.442;10.564;2023-05-14T10:50:55;25.11;45.77
80132;SHT30;69442;51.442;10.564;2023-05-14T10:53:35;25.20;45.17
80132;SHT30;69442;51.442;10.564;2023-05-14T10:56:07;25.29;45.31
80132;SHT30;69442;51.442;10.564;2023-05-14T10:58:41;25.36;45.12
80132;SHT30;69442;51.442;10.564;2023-05-14T11:01:09;25.46;45.15
80132;SHT30;69442;51.442;10.564;2023-05-14T11:03:44;25.53;44.77
80132;SHT30;69442;51.442;10.564;2023-05-14T11:06:11;25.66;45.10
80132;SHT30;69442;51.442;10.564;2023-05-14T11:08:37;25.77;45.00
80132;SHT30;69442;51.442;10.564;2023-05-14T11:11:04;25.92;45.04
80132;SHT30;69442;51.442;10.564;2023-05-14T11:13:30;26.05;44.56
80132;SHT30;69442;51.442;10.564;2023-05-14T11:15:56;26.21;44.46
80132;SHT30;69442;51.442;10.564;2023-05-14T11:18:30;26.33;43.93
80132;SHT30;69442;51.442;10.564;2023-05-14T11:20:59;26.50;43.85
80132;SHT30;69442;51.442;10.564;2023-05-14T11:23:25;26.65;43.72
80132;SHT30;69442;51.442;10.564;2023-05-14T11:25:51;26.67;43.53
80132;SHT30;69442;51.442;10.564;2023-05-14T11:28:19;26.74;43.50
80132;SHT30;69442;51.442;10.564;2023-05-14T11:30:45;26.73;43.58
80132;SHT30;69442;51.442;10.564;2023-05-14T11:33:11;26.73;43.59
80132;SHT30;69442;51.442;10.564;2023-05-14T11:35:36;26.65;43.43
80132;SHT30;69442;51.442;10.564;2023-05-14T11:38:02;26.64;43.70
80132;SHT30;69442;51.442;10.564;2023-05-14T11:40:27;26.63;43.79
80132;SHT30;69442;51.442;10.564;2023-05-14T11:42:52;26.61;43.67
80132;SHT30;69442;51.442;10.564;2023-05-14T11:45:27;26.56;43.15
80132;SHT30;69442;51.442;10.564;2023-05-14T11:47:54;26.49;43.69
80132;SHT30;69442;51.442;10.564;2023-05-14T11:50:20;26.46;43.66
80132;SHT30;69442;51.442;10.564;2023-05-14T11:52:46;26.39;43.60
80132;SHT30;69442;51.442;10.564;2023-05-14T11:55:14;26.29;43.58
80132;SHT30;69442;51.442;10.564;2023-05-14T11:57:40;26.26;43.70
80132;SHT30;69442;51.442;10.564;2023-05-14T12:00:09;26.16;43.60
80132;SHT30;69442;51.442;10.564;2023-05-14T12:02:38;26.14;43.71
80132;SHT30;69442;51.442;10.564;2023-05-14T12:05:04;26.04;43.10
80132;SHT30;69442;51.442;10.564;2023-05-14T12:07:31;25.97;43.58
80132;SHT30;69442;51.442;10.564;2023-05-14T12:10:00;25.91;43.89
80132;SHT30;69442;51.442;10.564;2023-05-14T12:12:26;25.89;43.77
80132;SHT30;69442;51.442;10.564;2023-05-14T12:14:51;25.80;43.21
80132;SHT30;69442;51.442;10.564;2023-05-14T12:17:19;25.78;43.78
80132;SHT30;69442;51.442;10.564;2023-05-14T12:19:49;25.73;44.10
80132;SHT30;69442;51.442;10.564;2023-05-14T12:22:18;25.75;43.94
80132;SHT30;69442;51.442;10.564;2023-05-14T12:24:52;25.82;43.82
80132;SHT30;69442;51.442;10.564;2023-05-14T12:27:23;25.87;43.87
80132;SHT30;69442;51.442;10.564;2023-05-14T12:30:00;25.98;43.74
80132;SHT30;69442;51.442;10.564;2023-05-14T12:32:27;26.11;43.92
80132;SHT30;69442;51.442;10.564;2023-05-14T12:34:55;26.23;43.94
80132;SHT30;69442;51.442;10.564;2023-05-14T12:37:20;26.36;43.71
80132;SHT30;69442;51.442;10.564;2023-05-14T12:39:46;26.43;43.41
80132;SHT30;69442;51.442;10.564;2023-05-14T12:42:13;26.49;43.19
80132;SHT30;69442;51.442;10.564;2023-05-14T12:44:39;26.49;43.04
80132;SHT30;69442;51.442;10.564;2023-05-14T12:47:04;26.49;43.35
80132;SHT30;69442;51.442;10.564;2023-05-14T12:49:30;26.47;43.16
80132;SHT30;69442;51.442;10.564;2023-05-14T12:51:55;26.47;43.43
80132;SHT30;69442;51.442;10.564;2023-05-14T12:54:20;26.46;43.33
80132;SHT30;69442;51.442;10.564;2023-05-14T12:56:46;26.46;43.28
80132;SHT30;69442;51.442;10.564;2023-05-14T12:59:11;26.50;43.49
80132;SHT30;69442;51.442;10.564;2023-05-14T13:01:36;26.44;43.07
80132;SHT30;69442;51.442;10.564;2023-05-14T13:04:03;26.42;43.07
80132;SHT30;69442;51.442;10.564;2023-05-14T13:06:28;26.40;43.35
80132;SHT30;69442;51.442;10.564;2023-05-14T13:08:53;26.39;43.48
80132;SHT30;69442;51.442;10.564;2023-05-14T13:11:20;26.37;43.06
80132;SHT30;69442;51.442;10.564;2023-05-14T13:13:46;26.44;43.26
80132;SHT30;69442;51.442;10.564;2023-05-14T13:16:12;26.51;43.12
80132;SHT30;69442;51.442;10.564;2023-05-14T13:18:42;26.60;43.11
80132;SHT30;69442;51.442;10.564;2023-05-14T13:21:07;26.67;43.07
80132;SHT30;69442;51.442;10.564;2023-05-14T13:23:32;26.76;43.08
80132;SHT30;69442;51.442;10.564;2023-05-14T13:25:58;26.91;42.82
80132;SHT30;69442;51.442;10.564;2023-05-14T13:28:23;27.04;42.65
80132;SHT30;69442;51.442;10.564;2023-05-14T13:31:07;27.19;41.66
80132;SHT30;69442;51.442;10.564;2023-05-14T13:33:34;27.30;42.06
80132;SHT30;69442;51.442;10.564;2023-05-14T13:36:00;27.39;41.77
80132;SHT30;69442;51.442;10.564;2023-05-14T13:38:25;27.51;42.02
80132;SHT30;69442;51.442;10.564;2023-05-14T13:40:51;27.63;41.85
80132;SHT30;69442;51.442;10.564;2023-05-14T13:43:16;27.74;41.81
80132;SHT30;69442;51.442;10.564;2023-05-14T13:45:41;27.88;41.75
80132;SHT30;69442;51.442;10.564;2023-05-14T13:48:07;28.01;41.67
80132;SHT30;69442;51.442;10.564;2023-05-14T13:50:32;28.18;41.28
80132;SHT30;69442;51.442;10.564;2023-05-14T13:52:58;28.31;41.20
80132;SHT30;69442;51.442;10.564;2023-05-14T13:55:23;28.40;40.91
80132;SHT30;69442;51.442;10.564;2023-05-14T13:57:48;28.49;40.76
80132;SHT30;69442;51.442;10.564;2023-05-14T14:00:14;28.59;40.67
80132;SHT30;69442;51.442;10.564;2023-05-14T14:02:40;28.65;40.44
80132;SHT30;69442;51.442;10.564;2023-05-14T14:05:05;28.67;40.37
80132;SHT30;69442;51.442;10.564;2023-05-14T14:07:31;28.67;40.31
80132;SHT30;69442;51.442;10.564;2023-05-14T14:09:56;28.67;40.29
80132;SHT30;69442;51.442;10.564;2023-05-14T14:12:22;28.65;40.22
80132;SHT30;69442;51.442;10.564;2023-05-14T14:14:47;28.59;40.23
80132;SHT30;69442;51.442;10.564;2023-05-14T14:17:12;28.59;40.13
80132;SHT30;69442;51.442;10.564;2023-05-14T14:19:38;28.59;40.27
80132;SHT30;69442;51.442;10.564;2023-05-14T14:22:04;28.60;40.39
80132;SHT30;69442;51.442;10.564;2023-05-14T14:24:30;28.67;40.39
80132;SHT30;69442;51.442;10.564;2023-05-14T14:26:55;28.75;40.35
80132;SHT30;69442;51.442;10.564;2023-05-14T14:29:20;28.80;40.27
80132;SHT30;69442;51.442;10.564;2023-05-14T14:31:48;28.86;40.11
80132;SHT30;69442;51.442;10.564;2023-05-14T14:34:13;28.91;40.26
80132;SHT30;69442;51.442;10.564;2023-05-14T14:36:39;28.95;40.08
80132;SHT30;69442;51.442;10.564;2023-05-14T14:39:04;29.02;40.06
80132;SHT30;69442;51.442;10.564;2023-05-14T14:41:29;29.08;40.05
80132;SHT30;69442;51.442;10.564;2023-05-14T14:43:55;29.11;40.16
80132;SHT30;69442;51.442;10.564;2023-05-14T14:46:21;29.14;39.99
80132;SHT30;69442;51.442;10.564;2023-05-14T14:48:46;29.18;40.16
80132;SHT30;69442;51.442;10.564;2023-05-14T14:51:11;29.22;40.14
80132;SHT30;69442;51.442;10.564;2023-05-14T14:53:37;29.27;39.72
80132;SHT30;69442;51.442;10.564;2023-05-14T14:56:04;29.32;39.62
80132;SHT30;69442;51.442;10.564;2023-05-14T14:58:30;29.40;39.75
80132;SHT30;69442;51.442;10.564;2023-05-14T15:00:56;29.45;39.92
80132;SHT30;69442;51.442;10.564;2023-05-14T15:03:22;29.51;39.81
80132;SHT30;69442;51.442;10.564;2023-05-14T15:05:48;29.58;39.87
80132;SHT30;69442;51.442;10.564;2023-05-14T15:08:14;29.64;39.82
80132;SHT30;69442;51.442;10.564;2023-05-14T15:10:39;29.67;39.54
80132;SHT30;69442;51.442;10.564;2023-05-14T15:13:06;29.73;39.54
80132;SHT30;69442;51.442;10.564;2023-05-14T15:15:33;29.77;39.70
80132;SHT30;69442;51.442;10.564;2023-05-14T15:17:58;29.80;39.50
80132;SHT30;69442;51.442;10.564;2023-05-14T15:20:24;29.82;39.50
80132;SHT30;69442;51.442;10.564;2023-05-14T15:22:49;29.89;39.63